Time;durP1;ratioP1;P1;durP2;ratioP2;P2;SDS_P1;SDS_P2;PMS_P1;PMS_P2;Temp;Humidity;BMP_temperature;BMP_pressure;BME280_temperature;BME280_humidity;BME280_pressure;Samples;Min_cycle;Max_cycle;Signal;HPM_P1;HPM_P2
2023/02/13 00:01:03;;;;;;;46.33;21.50;;;7.50;99.90;;;;;;5015375;28;20494;-89
2023/02/13 00:03:29;;;;;;;43.40;21.52;;;7.50;99.90;;;;;;4998513;28;20482;-89
2023/02/13 00:05:54;;;;;;;44.90;22.40;;;7.50;99.90;;;;;;4994339;28;20022;-88
2023/02/13 00:08:20;;;;;;;42.90;21.45;;;7.50;99.90;;;;;;5021705;28;20068;-89
2023/02/13 00:10:47;;;;;;;41.72;18.80;;;7.50;99.90;;;;;;4998060;28;20037;-89
2023/02/13 00:13:12;;;;;;;44.05;20.35;;;7.50;99.90;;;;;;4996788;28;20068;-89
2023/02/13 00:15:38;;;;;;;37.15;19.80;;;7.50;99.90;;;;;;4995815;28;20061;-89
2023/02/13 00:18:03;;;;;;;42.85;20.30;;;7.50;99.90;;;;;;5003362;28;20062;-88
2023/02/13 00:20:29;;;;;;;44.92;20.00;;;7.50;99.90;;;;;;4997208;28;20548;-90
2023/02/13 00:22:55;;;;;;;42.72;20.38;;;7.50;99.90;;;;;;4994690;28;20035;-89
2023/02/13 00:25:20;;;;;;;42.45;20.23;;;7.50;99.90;;;;;;4997668;28;20049;-89
2023/02/13 00:27:46;;;;;;;44.80;19.42;;;7.50;99.90;;;;;;4998346;28;20033;-89
2023/02/13 00:30:12;;;;;;;43.10;21.33;;;7.50;99.90;;;;;;5014753;28;20520;-89
2023/02/13 00:32:37;;;;;;;37.58;18.90;;;7.50;99.90;;;;;;4997587;28;20025;-89
2023/02/13 00:35:03;;;;;;;34.45;17.95;;;7.50;99.90;;;;;;4997250;28;20390;-89
2023/02/13 00:37:29;;;;;;;42.65;19.88;;;7.50;99.90;;;;;;5012376;28;20030;-89
2023/02/13 00:39:55;;;;;;;34.33;17.52;;;7.50;99.90;;;;;;4994411;28;20069;-89
2023/02/13 00:42:25;;;;;;;43.03;21.02;;;7.40;99.90;;;;;;4995149;28;20547;-88
2023/02/13 00:44:51;;;;;;;42.58;19.63;;;7.40;99.90;;;;;;4996669;28;20022;-89
2023/02/13 00:47:17;;;;;;;41.22;19.02;;;7.40;99.90;;;;;;4995181;28;20037;-89
2023/02/13 00:49:42;;;;;;;40.00;19.92;;;7.40;99.90;;;;;;4986065;28;20023;-89
2023/02/13 00:52:08;;;;;;;41.63;20.40;;;7.40;99.90;;;;;;5017821;28;20032;-88
2023/02/13 00:54:34;;;;;;;44.20;21.25;;;7.40;99.90;;;;;;4991641;28;20101;-88
2023/02/13 00:56:59;;;;;;;47.75;20.35;;;7.40;99.90;;;;;;5020602;28;20060;-89
2023/02/13 00:59:25;;;;;;;42.63;21.20;;;7.40;99.90;;;;;;4997071;28;20045;-90
2023/02/13 01:01:50;;;;;;;43.20;19.77;;;7.40;99.90;;;;;;4997233;28;20486;-89
2023/02/13 01:04:16;;;;;;;44.05;20.20;;;7.30;99.90;;;;;;5003897;28;20034;-89
2023/02/13 01:06:41;;;;;;;43.58;21.52;;;7.30;99.90;;;;;;4996056;28;20104;-89
2023/02/13 01:09:07;;;;;;;42.53;21.30;;;7.30;99.90;;;;;;5009594;28;20088;-89
2023/02/13 01:11:32;;;;;;;38.08;18.85;;;7.40;99.90;;;;;;4981089;28;20052;-89
2023/02/13 01:13:58;;;;;;;42.60;20.48;;;7.30;99.90;;;;;;4995999;28;20084;-89
2023/02/13 01:16:23;;;;;;;42.08;20.38;;;7.30;99.90;;;;;;4989310;28;20022;-89
2023/02/13 01:18:49;;;;;;;42.95;19.90;;;7.30;99.90;;;;;;4996826;28;20083;-89
2023/02/13 01:21:18;;;;;;;40.15;20.58;;;7.30;99.90;;;;;;5014441;28;20038;-89
2023/02/13 01:23:44;;;;;;;42.28;20.42;;;7.30;99.90;;;;;;4996538;28;20026;-89
2023/02/13 01:26:17;;;;;;;40.88;19.85;;;7.30;99.90;;;;;;4996431;28;20086;-89
2023/02/13 01:28:43;;;;;;;38.03;19.13;;;7.40;99.90;;;;;;4986704;28;20030;-89
2023/02/13 01:31:08;;;;;;;43.05;20.45;;;7.40;99.90;;;;;;4992586;28;20030;-88
2023/02/13 01:33:34;;;;;;;41.17;20.92;;;7.40;99.90;;;;;;5005126;28;20065;-88
2023/02/13 01:36:08;;;;;;;42.05;20.63;;;7.40;99.90;;;;;;5010131;28;20080;-89
2023/02/13 01:38:34;;;;;;;39.78;20.38;;;7.30;99.90;;;;;;4994101;28;20022;-89
2023/02/13 01:40:59;;;;;;;44.55;21.17;;;7.30;99.90;;;;;;5020908;28;20025;-89
2023/02/13 01:43:49;;;;;;;39.08;19.35;;;7.30;99.90;;;;;;5001188;28;20053;-89
2023/02/13 01:46:19;;;;;;;46.47;21.20;;;7.30;99.90;;;;;;5000352;28;20030;-88
2023/02/13 01:48:46;;;;;;;41.70;19.60;;;7.30;99.90;;;;;;5018725;28;20038;-89
2023/02/13 01:51:18;;;;;;;43.28;21.30;;;7.30;99.90;;;;;;5019289;28;20021;-88
2023/02/13 01:53:52;;;;;;;41.40;19.50;;;7.30;99.90;;;;;;5013351;28;20034;-89
2023/02/13 01:56:41;;;;;;;39.75;20.45;;;7.30;99.90;;;;;;5009236;28;20421;-88
2023/02/13 01:59:11;;;;;;;40.65;18.08;;;7.30;99.90;;;;;;5013415;28;20512;-89
2023/02/13 02:01:37;;;;;;;45.35;20.23;;;7.30;99.90;;;;;;5011434;28;20029;-89
2023/02/13 02:04:34;;;;;;;44.33;20.27;;;7.20;99.90;;;;;;5006169;28;20034;-88
2023/02/13 02:07:11;;;;;;;48.60;22.08;;;7.30;99.90;;;;;;5000476;28;20061;-89
2023/02/13 02:09:39;;;;;;;43.33;21.38;;;7.30;99.90;;;;;;4995885;28;20022;-89
2023/02/13 02:12:44;;;;;;;42.10;20.63;;;7.30;99.90;;;;;;5009684;28;20065;-89
2023/02/13 02:15:11;;;;;;;46.70;21.98;;;7.30;99.90;;;;;;5008114;28;20056;-88
2023/02/13 02:17:36;;;;;;;41.83;19.75;;;7.30;99.90;;;;;;4995401;28;20022;-89
2023/02/13 02:20:17;;;;;;;39.42;18.73;;;7.30;99.90;;;;;;4995912;28;20034;-88
2023/02/13 02:23:01;;;;;;;41.85;20.30;;;7.30;99.90;;;;;;4995609;28;20051;-89
2023/02/13 02:25:39;;;;;;;44.80;20.77;;;7.30;99.90;;;;;;4980746;28;20158;-89
2023/02/13 02:28:28;;;;;;;46.15;22.65;;;7.30;99.90;;;;;;5001252;28;20099;-88
2023/02/13 02:31:14;;;;;;;46.65;21.70;;;7.30;99.90;;;;;;4988568;28;20026;-89
2023/02/13 02:33:55;;;;;;;42.80;21.15;;;7.30;99.90;;;;;;4966107;28;20463;-89
2023/02/13 02:36:46;;;;;;;48.25;21.10;;;7.30;99.90;;;;;;5011949;28;20081;-89
2023/02/13 02:40:03;;;;;;;46.88;21.95;;;7.30;99.90;;;;;;4995439;28;20065;-88
2023/02/13 02:42:56;;;;;;;41.35;20.65;;;7.30;99.90;;;;;;4979354;28;20060;-89
2023/02/13 02:45:31;;;;;;;46.33;21.77;;;7.30;99.90;;;;;;5007649;28;20034;-89
2023/02/13 02:51:34;;;;;;;44.15;21.88;;;7.30;99.90;;;;;;4975995;28;20096;-88
2023/02/13 02:55:05;;;;;;;48.70;22.35;;;7.30;99.90;;;;;;5002459;28;20049;-89
2023/02/13 02:56:59;;;;;;;43.45;21.45;;;7.20;99.90;;;;;;5011366;28;20034;-89
2023/02/13 03:07:44;;;;;;;51.75;23.10;;;7.30;99.90;;;;;;5010752;28;20485;-89
2023/02/13 03:13:19;;;;;;;45.75;21.60;;;7.30;99.90;;;;;;5002524;28;20056;-89
2023/02/13 03:24:26;;;;;;;48.92;22.13;;;7.20;99.90;;;;;;4997201;28;20061;-89
2023/02/13 03:27:10;;;;;;;48.22;21.73;;;7.20;99.90;;;;;;5000982;28;20038;-89
2023/02/13 03:30:07;;;;;;;45.00;21.40;;;7.20;99.90;;;;;;4993864;28;20079;-89
2023/02/13 03:32:58;;;;;;;46.60;22.33;;;7.20;99.90;;;;;;5014478;28;20120;-89
2023/02/13 03:38:40;;;;;;;45.78;22.63;;;7.20;99.90;;;;;;5009130;28;20080;-89
2023/02/13 03:41:19;;;;;;;45.80;21.88;;;7.20;99.90;;;;;;5016038;28;20022;-89
2023/02/13 03:44:07;;;;;;;47.58;22.40;;;7.20;99.90;;;;;;5009169;28;20037;-89
2023/02/13 03:46:37;;;;;;;47.88;21.88;;;7.20;99.90;;;;;;4991179;28;20393;-89
2023/02/13 03:52:06;;;;;;;49.08;22.50;;;7.20;99.90;;;;;;5010745;28;20041;-89
2023/02/13 04:00:10;;;;;;;42.78;20.83;;;7.20;99.90;;;;;;5004767;28;20049;-89
2023/02/13 04:02:41;;;;;;;52.25;23.55;;;7.20;99.90;;;;;;4996121;28;20030;-89
2023/02/13 04:05:15;;;;;;;52.60;22.70;;;7.20;99.90;;;;;;4994992;28;20068;-88
2023/02/13 04:07:41;;;;;;;49.10;22.67;;;7.20;99.90;;;;;;5006701;28;20081;-89
2023/02/13 04:10:13;;;;;;;47.67;22.95;;;7.20;99.90;;;;;;5009123;28;20050;-88
2023/02/13 04:12:59;;;;;;;49.30;24.05;;;7.20;99.90;;;;;;4996186;28;20029;-89
2023/02/13 04:15:37;;;;;;;52.47;23.70;;;7.20;99.90;;;;;;5007254;28;20026;-89
2023/02/13 04:18:29;;;;;;;52.55;23.23;;;7.20;99.90;;;;;;5007283;28;20481;-89
2023/02/13 04:20:54;;;;;;;47.03;22.35;;;7.20;99.90;;;;;;4985574;28;20031;-89
2023/02/13 04:23:20;;;;;;;56.53;26.08;;;7.20;99.90;;;;;;5009433;28;20036;-89
2023/02/13 04:25:50;;;;;;;50.17;24.90;;;7.20;99.90;;;;;;5015040;28;20026;-89
2023/02/13 04:28:16;;;;;;;50.10;24.45;;;7.20;99.90;;;;;;5012179;28;20129;-89
2023/02/13 04:30:42;;;;;;;49.22;23.98;;;7.20;99.90;;;;;;4997381;28;20061;-88
2023/02/13 04:33:07;;;;;;;53.63;24.30;;;7.30;99.90;;;;;;4993562;28;20034;-89
2023/02/13 04:35:34;;;;;;;53.80;24.50;;;7.20;99.90;;;;;;4988035;28;20041;-89
2023/02/13 04:38:00;;;;;;;49.05;22.63;;;7.20;99.90;;;;;;5002772;28;20037;-89
2023/02/13 04:40:25;;;;;;;49.50;24.65;;;7.20;99.90;;;;;;4996852;28;20139;-89
2023/02/13 04:42:51;;;;;;;51.15;24.42;;;7.20;99.90;;;;;;5007033;28;20029;-88
2023/02/13 04:45:17;;;;;;;49.83;23.85;;;7.20;99.90;;;;;;4996154;28;20032;-89
2023/02/13 04:47:48;;;;;;;48.63;23.40;;;7.20;99.90;;;;;;5000055;28;20048;-89
2023/02/13 04:50:13;;;;;;;53.40;24.08;;;7.10;99.90;;;;;;5005258;28;20034;-89
2023/02/13 04:52:39;;;;;;;49.50;24.38;;;7.10;99.90;;;;;;4988448;28;20045;-89
2023/02/13 04:55:05;;;;;;;53.40;23.92;;;7.00;99.90;;;;;;5010456;28;20103;-89
2023/02/13 04:57:30;;;;;;;52.63;24.15;;;7.00;99.90;;;;;;4995056;28;20540;-89
2023/02/13 04:59:56;;;;;;;53.40;24.58;;;7.00;99.90;;;;;;4995520;28;20033;-89
2023/02/13 05:02:21;;;;;;;50.47;24.23;;;6.90;99.90;;;;;;4997341;28;20072;-89
2023/02/13 05:04:47;;;;;;;48.80;24.20;;;6.90;99.90;;;;;;4989326;28;20110;-88
2023/02/13 05:07:12;;;;;;;54.55;25.13;;;6.80;99.90;;;;;;4988891;28;20125;-88
2023/02/13 05:09:38;;;;;;;54.60;25.48;;;6.80;99.90;;;;;;5002271;28;20113;-88
2023/02/13 05:12:03;;;;;;;51.10;24.90;;;6.80;99.90;;;;;;4996987;28;20034;-89
2023/02/13 05:14:29;;;;;;;54.28;23.65;;;6.80;99.90;;;;;;5017160;28;20145;-89
2023/02/13 05:16:54;;;;;;;48.45;23.20;;;6.80;99.90;;;;;;5019947;28;20029;-89
2023/02/13 05:19:20;;;;;;;49.35;23.63;;;6.80;99.90;;;;;;5002169;28;20034;-89
2023/02/13 05:24:30;;;;;;;50.55;24.30;;;6.70;99.90;;;;;;5012846;28;20080;-88
2023/02/13 05:26:55;;;;;;;53.70;24.30;;;6.60;99.90;;;;;;5003379;28;20073;-89
2023/02/13 05:29:24;;;;;;;50.28;25.10;;;6.60;99.90;;;;;;4995885;28;20545;-89
2023/02/13 05:31:54;;;;;;;50.47;25.13;;;6.50;99.90;;;;;;5005764;28;20430;-89
2023/02/13 05:34:22;;;;;;;50.08;23.20;;;6.50;99.90;;;;;;5009340;28;20143;-89
2023/02/13 05:36:47;;;;;;;53.20;23.88;;;6.40;99.90;;;;;;5013432;28;20057;-89
2023/02/13 05:39:14;;;;;;;55.10;24.52;;;6.30;99.90;;;;;;5007876;28;20087;-89
2023/02/13 05:41:40;;;;;;;51.55;24.83;;;6.20;99.90;;;;;;4995794;28;20033;-89
2023/02/13 05:44:06;;;;;;;52.53;25.23;;;6.10;99.90;;;;;;5013932;28;20034;-89
2023/02/13 05:46:31;;;;;;;50.45;23.65;;;6.00;99.90;;;;;;4993066;28;20029;-88
2023/02/13 05:48:57;;;;;;;51.97;24.27;;;6.00;99.90;;;;;;4995537;28;20038;-89
2023/02/13 05:51:23;;;;;;;52.53;23.35;;;5.90;99.90;;;;;;5018984;28;20026;-89
2023/02/13 05:53:48;;;;;;;50.90;24.95;;;5.90;99.90;;;;;;4995464;28;20026;-89
2023/02/13 05:56:14;;;;;;;50.75;24.45;;;5.80;99.90;;;;;;4995621;28;20030;-90
2023/02/13 05:58:40;;;;;;;51.05;23.80;;;5.80;99.90;;;;;;4995073;28;20551;-88
2023/02/13 06:01:06;;;;;;;52.67;25.30;;;5.70;99.90;;;;;;5020177;28;20033;-89
2023/02/13 06:03:32;;;;;;;49.35;24.52;;;5.70;99.90;;;;;;4996033;28;20053;-88
2023/02/13 06:05:58;;;;;;;47.92;23.85;;;5.60;99.90;;;;;;4995229;28;20033;-89
2023/02/13 06:08:24;;;;;;;51.17;24.58;;;5.50;99.90;;;;;;4995716;28;20084;-88
2023/02/13 06:10:50;;;;;;;48.30;23.90;;;5.50;99.90;;;;;;4999024;28;20053;-89
2023/02/13 06:13:16;;;;;;;48.88;23.30;;;5.40;99.90;;;;;;5008957;28;20034;-89
2023/02/13 06:15:42;;;;;;;50.00;24.13;;;5.50;99.90;;;;;;4998300;28;20027;-89
2023/02/13 06:18:08;;;;;;;47.97;23.38;;;5.40;99.90;;;;;;5005604;28;20157;-89
2023/02/13 06:20:34;;;;;;;51.97;23.65;;;5.40;99.90;;;;;;4995304;28;20029;-89
2023/02/13 06:23:00;;;;;;;49.85;23.15;;;5.40;99.90;;;;;;4992575;28;20064;-89
2023/02/13 06:25:25;;;;;;;47.60;23.80;;;5.40;99.90;;;;;;4993105;28;20054;-89
2023/02/13 06:27:51;;;;;;;51.95;23.38;;;5.40;99.90;;;;;;4992491;28;20037;-88
2023/02/13 06:30:17;;;;;;;47.30;23.98;;;5.40;99.90;;;;;;5011956;28;20029;-89
2023/02/13 06:32:45;;;;;;;47.08;22.23;;;5.40;99.90;;;;;;5007243;28;20026;-89
2023/02/13 06:35:11;;;;;;;50.47;23.73;;;5.40;99.90;;;;;;4995030;28;20050;-89
2023/02/13 06:37:38;;;;;;;48.10;22.45;;;5.30;99.90;;;;;;4994386;28;20040;-89
2023/02/13 06:40:05;;;;;;;49.60;23.73;;;5.30;99.90;;;;;;4995030;28;20113;-89
2023/02/13 06:42:30;;;;;;;47.70;23.50;;;5.20;99.90;;;;;;4992493;28;20034;-88
2023/02/13 06:44:56;;;;;;;47.15;23.08;;;5.20;99.90;;;;;;4992078;28;20040;-89
2023/02/13 06:47:21;;;;;;;48.33;22.60;;;5.20;99.90;;;;;;4992964;28;20042;-88
2023/02/13 06:49:47;;;;;;;51.47;22.83;;;5.20;99.90;;;;;;4994785;28;20022;-89
2023/02/13 06:52:12;;;;;;;50.95;23.27;;;5.20;99.90;;;;;;4990599;28;20034;-89
2023/02/13 06:54:38;;;;;;;54.75;24.08;;;5.10;99.90;;;;;;4989135;28;20025;-89
2023/02/13 06:57:03;;;;;;;48.42;22.98;;;5.10;99.90;;;;;;4994356;28;20033;-89
2023/02/13 06:59:29;;;;;;;49.97;23.90;;;5.10;99.90;;;;;;5009734;28;20034;-89
2023/02/13 07:01:54;;;;;;;48.50;22.75;;;5.10;99.90;;;;;;4994705;28;20022;-89
2023/02/13 07:04:20;;;;;;;54.10;23.80;;;5.10;99.90;;;;;;4994044;28;20030;-88
2023/02/13 07:06:45;;;;;;;53.53;24.88;;;5.10;99.90;;;;;;4993918;28;20030;-88
2023/02/13 07:09:12;;;;;;;53.10;25.15;;;5.10;99.90;;;;;;5013168;28;20034;-88
2023/02/13 07:11:38;;;;;;;49.63;23.60;;;5.10;99.90;;;;;;4990726;28;20188;-89
2023/02/13 07:14:06;;;;;;;51.22;24.08;;;5.10;99.90;;;;;;4986983;28;20026;-88
2023/02/13 07:16:32;;;;;;;49.60;23.88;;;5.10;99.90;;;;;;4994943;28;20029;-88
2023/02/13 07:18:58;;;;;;;54.95;23.88;;;5.10;99.90;;;;;;5018405;28;20097;-88
2023/02/13 07:21:23;;;;;;;50.40;23.60;;;5.00;99.90;;;;;;5015017;28;20080;-88
2023/02/13 07:23:49;;;;;;;52.25;24.15;;;5.00;99.90;;;;;;4995811;28;20037;-88
2023/02/13 07:26:15;;;;;;;50.17;23.02;;;5.00;99.90;;;;;;4989963;28;20033;-89
2023/02/13 07:28:40;;;;;;;44.67;21.40;;;4.90;99.90;;;;;;4994165;28;20133;-88
2023/02/13 07:31:06;;;;;;;47.40;22.58;;;4.90;99.90;;;;;;4996179;28;20022;-88
2023/02/13 07:33:33;;;;;;;52.90;23.85;;;4.90;99.90;;;;;;5003810;28;20061;-89
2023/02/13 07:35:59;;;;;;;50.30;23.38;;;4.80;99.90;;;;;;4995558;28;20045;-89
2023/02/13 07:38:25;;;;;;;46.08;22.02;;;4.80;99.90;;;;;;5004396;28;20030;-89
2023/02/13 07:40:50;;;;;;;52.40;23.80;;;4.80;99.90;;;;;;4993015;28;20033;-89
2023/02/13 07:43:16;;;;;;;52.83;24.40;;;4.80;99.90;;;;;;4994595;28;20026;-89
2023/02/13 07:45:41;;;;;;;50.35;22.60;;;4.80;99.90;;;;;;4992406;28;20049;-89
2023/02/13 07:48:07;;;;;;;49.08;23.10;;;4.80;99.90;;;;;;4986672;28;20038;-89
2023/02/13 07:50:33;;;;;;;54.50;23.90;;;4.90;99.90;;;;;;5002228;28;20112;-89
2023/02/13 07:53:01;;;;;;;50.40;22.90;;;4.90;99.90;;;;;;5008140;28;20034;-91
2023/02/13 07:55:28;;;;;;;48.50;23.23;;;5.00;99.90;;;;;;5005524;28;20018;-91
2023/02/13 07:57:54;;;;;;;55.08;24.10;;;5.00;99.90;;;;;;4984047;28;20061;-90
2023/02/13 08:00:21;;;;;;;50.75;23.95;;;5.10;99.90;;;;;;4984009;28;20041;-90
2023/02/13 08:02:47;;;;;;;54.10;25.80;;;5.20;99.90;;;;;;4983204;28;20064;-90
2023/02/13 08:05:13;;;;;;;49.10;24.45;;;5.30;99.90;;;;;;4990596;28;20065;-90
2023/02/13 08:07:39;;;;;;;54.08;25.90;;;5.30;99.90;;;;;;4992458;28;20034;-88
2023/02/13 08:12:53;;;;;;;51.97;23.88;;;5.50;99.90;;;;;;5001209;28;20029;-90
2023/02/13 08:15:19;;;;;;;44.63;23.25;;;5.60;99.90;;;;;;5005716;28;20081;-89
2023/02/13 08:17:44;;;;;;;50.67;25.80;;;5.70;99.90;;;;;;5007788;28;20030;-88
2023/02/13 08:20:10;;;;;;;50.65;23.50;;;5.80;99.90;;;;;;4997773;28;20036;-88
2023/02/13 08:22:37;;;;;;;48.78;23.20;;;5.80;99.90;;;;;;4995888;28;20041;-89
2023/02/13 08:25:03;;;;;;;47.90;22.83;;;5.90;99.90;;;;;;5013945;28;20022;-89
2023/02/13 08:27:29;;;;;;;49.40;24.92;;;6.00;99.90;;;;;;4997274;28;20446;-88
2023/02/13 08:29:56;;;;;;;49.88;23.85;;;6.10;99.90;;;;;;4994500;28;20049;-88
2023/02/13 08:32:22;;;;;;;48.85;24.35;;;6.10;99.90;;;;;;4987945;28;20053;-89
2023/02/13 08:34:48;;;;;;;45.58;23.75;;;6.20;99.90;;;;;;5004926;28;20026;-86
2023/02/13 08:37:14;;;;;;;49.28;23.90;;;6.40;99.90;;;;;;4994564;28;20052;-89
2023/02/13 08:39:39;;;;;;;46.50;23.67;;;6.50;99.90;;;;;;5014857;28;20026;-89
2023/02/13 08:42:05;;;;;;;42.33;23.63;;;6.60;99.90;;;;;;5003708;28;20057;-88
2023/02/13 08:44:30;;;;;;;50.10;23.88;;;6.70;99.90;;;;;;4997917;28;20517;-88
2023/02/13 08:46:56;;;;;;;43.63;25.10;;;6.80;99.90;;;;;;4995319;28;20046;-88
2023/02/13 08:49:22;;;;;;;46.58;24.10;;;6.90;99.90;;;;;;4996319;28;20683;-87
2023/02/13 08:51:48;;;;;;;45.80;23.67;;;7.00;99.90;;;;;;4990397;28;20029;-87
2023/02/13 08:54:14;;;;;;;43.30;23.38;;;7.20;99.90;;;;;;4996158;28;20767;-87
2023/02/13 08:56:41;;;;;;;42.42;24.00;;;7.30;99.90;;;;;;4999908;28;20021;-87
2023/02/13 08:59:07;;;;;;;42.47;24.02;;;7.40;99.90;;;;;;4987940;28;20493;-88
2023/02/13 09:01:32;;;;;;;43.00;23.17;;;7.50;99.90;;;;;;4995208;28;20107;-88
2023/02/13 09:03:58;;;;;;;44.50;23.70;;;7.60;99.90;;;;;;4993644;28;20036;-87
2023/02/13 09:06:25;;;;;;;50.38;23.50;;;7.70;99.90;;;;;;5012744;28;20018;-88
2023/02/13 09:08:51;;;;;;;43.80;24.63;;;7.80;99.90;;;;;;4996802;28;20042;-88
2023/02/13 09:11:18;;;;;;;39.90;22.77;;;7.90;99.90;;;;;;4994793;28;20113;-88
2023/02/13 09:13:44;;;;;;;39.83;22.80;;;8.00;99.90;;;;;;4997955;28;20068;-87
2023/02/13 09:16:10;;;;;;;39.05;20.85;;;8.10;99.90;;;;;;5000163;28;20035;-88
2023/02/13 09:18:35;;;;;;;40.78;21.65;;;8.10;99.90;;;;;;4996518;28;20123;-88
2023/02/13 09:21:10;;;;;;;39.20;22.38;;;8.20;99.90;;;;;;4998419;28;20030;-89
2023/02/13 09:23:38;;;;;;;38.13;21.60;;;8.20;99.90;;;;;;4997259;28;20030;-88
2023/02/13 09:26:07;;;;;;;34.63;21.23;;;8.30;99.90;;;;;;4996214;28;20086;-89
2023/02/13 09:28:33;;;;;;;36.90;21.45;;;8.40;99.90;;;;;;4984654;28;20137;-89
2023/02/13 09:30:59;;;;;;;37.40;20.48;;;8.40;99.90;;;;;;4990187;28;20545;-88
2023/02/13 09:33:25;;;;;;;37.40;22.48;;;8.40;99.90;;;;;;4996057;28;20121;-86
2023/02/13 09:35:51;;;;;;;38.17;21.08;;;8.50;99.90;;;;;;4988435;28;20043;-88
2023/02/13 09:38:17;;;;;;;32.78;19.13;;;8.60;99.90;;;;;;4990611;28;20026;-88
2023/02/13 09:40:48;;;;;;;35.67;19.90;;;8.60;99.90;;;;;;4988522;28;20446;-88
2023/02/13 09:43:32;;;;;;;38.63;20.55;;;8.60;99.90;;;;;;5009098;28;20026;-89
2023/02/13 09:46:04;;;;;;;33.33;19.65;;;8.70;99.90;;;;;;5010043;28;20030;-88
2023/02/13 09:48:33;;;;;;;35.40;20.25;;;8.70;99.90;;;;;;4994902;28;20045;-88
2023/02/13 09:50:59;;;;;;;35.72;20.00;;;8.70;99.90;;;;;;4989202;28;20022;-88
2023/02/13 09:53:27;;;;;;;36.97;20.70;;;8.80;99.90;;;;;;4998286;28;20076;-88
2023/02/13 09:56:34;;;;;;;39.75;21.65;;;8.80;99.90;;;;;;4995669;28;20053;-88
2023/02/13 09:59:34;;;;;;;34.50;20.48;;;8.90;99.90;;;;;;5009941;28;20045;-89
2023/02/13 10:02:22;;;;;;;36.28;20.73;;;9.00;99.90;;;;;;5000875;28;20164;-88
2023/02/13 10:04:58;;;;;;;36.47;21.20;;;9.00;99.90;;;;;;4996358;28;20068;-88
2023/02/13 10:07:50;;;;;;;33.63;19.95;;;9.00;99.90;;;;;;4992777;28;20148;-88
2023/02/13 10:10:49;;;;;;;31.40;19.23;;;9.10;99.90;;;;;;4990799;28;20085;-88
2023/02/13 10:13:33;;;;;;;29.33;18.65;;;9.20;99.90;;;;;;4983233;28;20036;-88
2023/02/13 10:16:14;;;;;;;32.20;19.48;;;9.20;99.90;;;;;;5012720;28;20030;-88
2023/02/13 10:19:11;;;;;;;32.75;19.35;;;9.20;99.90;;;;;;4992830;28;20074;-88
2023/02/13 10:21:47;;;;;;;32.55;18.30;;;9.30;99.90;;;;;;5007475;28;20113;-88
2023/02/13 10:24:16;;;;;;;34.00;20.05;;;9.40;99.90;;;;;;5008524;28;20033;-88
2023/02/13 10:26:45;;;;;;;39.60;20.92;;;9.40;99.90;;;;;;5001106;28;20030;-88
2023/02/13 10:32:05;;;;;;;33.15;19.48;;;9.40;99.90;;;;;;5007286;28;20048;-87
2023/02/13 10:34:37;;;;;;;33.63;19.70;;;9.50;99.90;;;;;;4997275;28;20018;-87
2023/02/13 10:37:08;;;;;;;35.60;20.00;;;9.50;99.90;;;;;;4996883;28;20048;-87
2023/02/13 10:39:33;;;;;;;32.30;18.23;;;9.60;99.90;;;;;;4993013;28;20382;-88
2023/02/13 10:42:14;;;;;;;30.95;18.92;;;9.60;99.90;;;;;;5006865;28;20080;-88
2023/02/13 10:44:39;;;;;;;35.50;19.88;;;9.70;99.90;;;;;;5012834;28;20026;-88
2023/02/13 10:47:54;;;;;;;33.47;19.85;;;9.70;99.90;;;;;;4994634;28;20053;-88
2023/02/13 10:50:25;;;;;;;31.52;19.02;;;9.70;99.90;;;;;;4988008;28;20076;-88
2023/02/13 10:53:18;;;;;;;33.22;19.15;;;9.70;99.90;;;;;;4994086;28;20095;-88
2023/02/13 10:56:21;;;;;;;32.50;19.08;;;9.70;99.90;;;;;;4980457;28;20033;-88
2023/02/13 10:59:04;;;;;;;33.65;18.58;;;9.80;99.90;;;;;;5003199;28;20018;-88
2023/02/13 11:01:54;;;;;;;31.10;19.20;;;9.80;99.90;;;;;;5000273;28;20029;-88
2023/02/13 11:04:19;;;;;;;30.52;18.92;;;9.90;99.90;;;;;;4976010;28;20038;-88
2023/02/13 11:06:59;;;;;;;29.55;17.45;;;9.90;99.90;;;;;;4981668;28;20032;-88
2023/02/13 11:09:26;;;;;;;28.23;18.27;;;10.00;99.90;;;;;;4992183;28;20076;-88
2023/02/13 11:11:52;;;;;;;32.38;19.08;;;10.10;99.90;;;;;;4993326;28;20029;-89
2023/02/13 11:14:28;;;;;;;29.50;18.67;;;10.00;99.90;;;;;;4995376;28;20033;-89
2023/02/13 11:17:04;;;;;;;32.58;19.95;;;10.00;99.90;;;;;;4992937;28;20072;-88
2023/02/13 11:19:33;;;;;;;32.30;18.70;;;10.10;99.90;;;;;;5010299;28;20030;-88
2023/02/13 11:22:02;;;;;;;30.35;18.67;;;10.10;99.90;;;;;;4998437;28;20042;-90
2023/02/13 11:24:29;;;;;;;31.65;18.65;;;10.10;99.90;;;;;;5012768;28;20022;-89
2023/02/13 11:27:01;;;;;;;34.45;19.25;;;10.10;99.90;;;;;;4991724;28;20022;-89
2023/02/13 11:29:29;;;;;;;30.83;19.33;;;10.20;99.90;;;;;;5011559;28;20022;-88
2023/02/13 11:32:17;;;;;;;29.33;18.58;;;10.30;99.90;;;;;;5012336;28;20565;-89
2023/02/13 11:34:43;;;;;;;29.45;17.90;;;10.40;99.90;;;;;;4994713;28;20038;-89
2023/02/13 11:37:11;;;;;;;29.55;18.67;;;10.40;99.90;;;;;;4993218;28;20065;-89
2023/02/13 11:39:41;;;;;;;32.05;18.17;;;10.40;99.90;;;;;;5013369;28;20402;-88
2023/02/13 11:42:15;;;;;;;28.65;18.00;;;10.50;99.90;;;;;;4997100;28;20034;-88
2023/02/13 11:44:43;;;;;;;30.60;17.48;;;10.50;99.90;;;;;;4987358;28;20363;-88
2023/02/13 11:47:09;;;;;;;28.45;18.52;;;10.60;99.90;;;;;;5003540;28;20064;-88
2023/02/13 11:49:43;;;;;;;29.20;18.38;;;10.60;99.90;;;;;;4985696;28;20022;-88
2023/02/13 11:52:29;;;;;;;28.70;17.60;;;10.70;99.90;;;;;;5004365;28;20030;-88
2023/02/13 11:55:01;;;;;;;28.25;18.00;;;10.80;99.90;;;;;;5011642;28;20030;-88
2023/02/13 11:57:35;;;;;;;24.67;16.70;;;10.80;99.90;;;;;;4993603;28;20199;-88
2023/02/13 12:00:36;;;;;;;27.70;16.83;;;10.90;99.90;;;;;;4997934;28;20037;-88
2023/02/13 12:03:02;;;;;;;25.05;15.10;;;10.90;99.90;;;;;;5001715;28;20085;-88
2023/02/13 12:05:28;;;;;;;28.85;16.83;;;11.00;99.90;;;;;;5005614;28;20026;-88
2023/02/13 12:08:00;;;;;;;23.88;16.05;;;11.00;99.90;;;;;;4992615;28;20514;-88
2023/02/13 12:10:30;;;;;;;23.52;16.20;;;11.00;99.90;;;;;;4990427;28;20539;-88
2023/02/13 12:13:23;;;;;;;25.75;15.60;;;11.00;99.90;;;;;;4996175;28;20037;-88
2023/02/13 12:15:58;;;;;;;22.38;14.57;;;11.10;99.90;;;;;;5007658;28;21636;-88
2023/02/13 12:18:30;;;;;;;24.52;14.45;;;11.10;99.90;;;;;;4996229;28;20443;-88
2023/02/13 12:21:34;;;;;;;26.65;15.40;;;11.20;99.90;;;;;;4996265;28;20030;-88
2023/02/13 12:24:14;;;;;;;23.83;14.85;;;11.20;99.90;;;;;;5008388;28;20443;-89
2023/02/13 12:26:43;;;;;;;26.45;16.58;;;11.30;99.90;;;;;;4991744;28;20030;-88
2023/02/13 12:29:39;;;;;;;25.52;15.88;;;11.30;99.90;;;;;;4997200;28;20509;-88
2023/02/13 12:32:36;;;;;;;28.10;15.35;;;11.40;99.90;;;;;;4998262;28;20398;-89
2023/02/13 12:35:29;;;;;;;25.73;15.13;;;11.50;99.90;;;;;;4994066;28;21623;-88
2023/02/13 12:38:06;;;;;;;24.95;14.82;;;11.50;99.90;;;;;;4997389;28;20130;-89
2023/02/13 12:40:56;;;;;;;26.25;16.42;;;11.40;99.90;;;;;;5011471;28;20501;-88
2023/02/13 12:43:44;;;;;;;27.67;15.90;;;11.40;99.90;;;;;;5010195;28;20549;-89
2023/02/13 12:46:26;;;;;;;23.92;15.35;;;11.40;99.90;;;;;;5012367;28;20037;-88
2023/02/13 12:49:26;;;;;;;21.83;14.43;;;11.50;99.90;;;;;;4997625;28;20386;-89
2023/02/13 12:52:33;;;;;;;23.00;14.20;;;11.50;99.90;;;;;;5012992;28;20036;-90
2023/02/13 12:55:34;;;;;;;21.98;14.05;;;11.60;99.90;;;;;;4980955;28;20038;-89
2023/02/13 12:58:26;;;;;;;23.85;14.95;;;11.70;99.90;;;;;;4981513;28;20062;-88
2023/02/13 13:00:54;;;;;;;22.67;14.77;;;11.80;99.90;;;;;;4979047;28;20038;-88
2023/02/13 13:03:45;;;;;;;21.13;14.48;;;11.90;99.90;;;;;;5008968;28;20034;-89
2023/02/13 13:06:34;;;;;;;21.40;13.93;;;12.00;99.90;;;;;;4995026;28;20030;-89
2023/02/13 13:09:24;;;;;;;24.90;15.77;;;12.10;99.90;;;;;;4996534;28;20057;-88
2023/02/13 13:12:17;;;;;;;23.90;15.43;;;12.20;99.90;;;;;;4991078;28;20497;-88
2023/02/13 13:14:48;;;;;;;22.83;14.05;;;12.30;99.90;;;;;;5014806;28;20036;-89
2023/02/13 13:17:54;;;;;;;23.08;15.52;;;12.30;99.90;;;;;;5008044;28;20037;-89
2023/02/13 13:20:36;;;;;;;23.10;14.30;;;12.30;99.90;;;;;;5008127;28;20418;-88
2023/02/13 13:23:17;;;;;;;21.52;14.95;;;12.30;99.90;;;;;;4995454;28;20025;-89
2023/02/13 13:25:48;;;;;;;22.10;14.73;;;12.40;99.90;;;;;;5001392;28;20042;-88
2023/02/13 13:28:21;;;;;;;20.42;13.98;;;12.40;99.90;;;;;;5007377;28;20486;-88
2023/02/13 13:30:48;;;;;;;19.88;13.60;;;12.50;99.90;;;;;;5002927;28;20022;-89
2023/02/13 13:33:22;;;;;;;24.67;15.15;;;12.60;99.90;;;;;;4992362;28;20026;-89
2023/02/13 13:36:26;;;;;;;23.08;15.30;;;12.60;99.90;;;;;;4998495;28;20042;-89
2023/02/13 13:39:08;;;;;;;21.45;14.82;;;12.70;99.90;;;;;;4987681;28;20065;-88
2023/02/13 13:42:12;;;;;;;23.75;15.23;;;12.80;99.90;;;;;;4983861;28;20486;-89
2023/02/13 13:44:56;;;;;;;24.90;14.95;;;12.90;99.90;;;;;;4978907;28;20031;-88